Phoenix, AZ

4:58 PM MST on June 29, 2015 (GMT -0700)
Phoenix Sky Harbor International | | Change Station
CLOSE
Current Station
Airport
Location: Phoenix,
Elevation: 1106 ft
Nearby Weather Stations

Elev 1106 ft 33.43 °N, 112.00 °W | Updated 7 minutes ago

Partly Cloudy
Partly Cloudy
108 °F
Feels Like 107 °F
N
5
Wind Variable Wind from West

Today
High -- | Low -- °F
--% Chance of Precip.
Yesterday
High -- | Low -- °F
Precip. -- in
5:21 AM 7:41 PM
Waxing Gibbous, 95% visible
Pressure 29.68 in
Visibility 10.0 miles
Clouds Few 7000 ft
Scattered Clouds 10000 ft
Mostly Cloudy 25000 ft
Heat Index 107 °F
Dew Point 55 °F
Humidity 17%
Rainfall 0.00 in
Snow Depth Not available.
UV 2 out of 12
Pollen 4.30 out of 12
Air Quality Not available.
Flu Activity Local Activity
METAR KPHX 292351Z 26004KT 10SM FEW070 SCT100 BKN250 42/13 A2974 RMK AO2 SLP049 CB DSNT NE-E-SE-S T04220128 10433 20372 56024

More Conditions Fewer Conditions

Pressure 29.68 in
Visibility 10.0 miles
Clouds Few 7000 ft
Scattered Clouds 10000 ft
Mostly Cloudy 25000 ft
Heat Index 107 °F
Dew Point 55 °F
Humidity 17%
Rainfall 0.00 in
Snow Depth Not available.
UV 2 out of 12
Pollen 4.30 out of 12
Air Quality Not available.
Flu Activity Local Activity
METAR KPHX 292351Z 26004KT 10SM FEW070 SCT100 BKN250 42/13 A2974 RMK AO2 SLP049 CB DSNT NE-E-SE-S T04220128 10433 20372 56024

More Conditions Fewer Conditions

10-Day Weather Forecast

×

Almanac

Astronomy

Jun. 29, 2015 Rise Set
Actual Time
Civil Twilight
Nautical Twilight
Astronomical Twilight
Moon
Length of Visible Light
Length of Day
Tomorrow will be .
, % of the Moon is Illuminated

Today's Extremes

State Highs State Lows

Community

WunderPhotos

Upload Photos

1,833,887 photos uploaded!

WunderBlogs® & News

Nearby

Air Quality

  Air Quality AQ Index Pollutant
Not available.

Snow Depth

Station Depth Elevation

Earthquake Activity

City Distance Mag. Time & Date
Minimum magnitude displayed is 2.5.

Coastal Water Temperatures

Place Temperature

Stations

Nearby Weather Stations

Station Location Temp. Windchill Dew Point Humidity Wind Precip. Elev Updated Type